Terminal Aerodrome Forecast
Issued by NWS Memphis, TN

Home | Current Version | Previous Version | Text Only | Print | Product List | Glossary On
Versions: 1 2 3 4 5 6 7 8 9 10 11 12 13 14 15 16 17 18 19 20 21 22 23 24 25 26 27 28 29 30 31 32
013
FTUS44 KMEG 022339
TAFMEM
TAF
KMEM 022339Z 0300/0324 35005KT P6SM BKN025 OVC120
     FM030400 35004KT P6SM SCT025 OVC080
     FM031100 01004KT P6SM OVC030
     FM031400 35007KT P6SM BKN040
     FM031800 33008KT P6SM OVC050=

USA.gov is the U.S. government's official web portal to all federal, state and local government web resources and services.